Date,TemperatureHighF,TemperatureAvgF,TemperatureLowF,DewpointHighF,DewpointAvgF,DewpointLowF,HumidityHigh,HumidityAvg,HumidityLow,PressureMaxIn,PressureMinIn,WindSpeedMaxMPH,WindSpeedAvgMPH,GustSpeedMaxMPH,PrecipitationSumIn
2013-1-1,36,30,19,27,18,4,77,61,49,30.03,29.83,26,6,26,0.00
2013-1-2,48,21,12,45,12,2,92,68,53,30.24,30.01,19,3,22,0.00
2013-1-3,40,15,5,37,3,-6,92,58,32,30.27,30.11,14,3,15,0.00
2013-1-4,37,29,19,25,20,12,89,68,56,30.12,29.93,26,4,26,0.01
2013-1-5,52,32,21,49,22,18,92,67,44,30.36,29.96,21,3,22,0.00
2013-1-6,62,33,21,58,26,18,92,79,57,30.34,30.04,16,2,21,0.01
2013-1-7,57,32,18,54,25,16,92,75,44,30.50,30.07,16,2,19,0.00
2013-1-8,49,35,18,46,26,15,92,73,52,30.47,30.38,24,3,24,0.00
2013-1-9,53,35,21,49,29,19,93,79,53,30.49,30.09,21,3,25,0.01
2013-1-10,47,39,29,44,25,22,92,58,44,30.63,30.16,30,5,33,0.00
2013-1-11,48,33,23,46,28,21,92,84,70,30.63,30.30,6,0,8,0.15
2013-1-12,56,40,36,54,37,34,93,91,90,30.32,30.20,4,0,4,0.07
2013-1-13,51,45,39,49,43,37,93,91,90,30.24,30.07,15,2,15,0.00
2013-1-14,57,49,38,50,40,28,93,75,42,30.33,29.94,20,4,20,0.00
2013-1-15,56,36,30,52,28,24,92,74,54,30.40,30.28,9,1,9,0.01
2013-1-16,47,32,28,44,29,23,92,88,68,30.34,29.90,8,1,10,0.16
2013-1-17,40,33,28,32,26,15,93,76,55,30.18,29.93,17,3,20,0.25
2013-1-18,32,22,17,30,6,-4,91,51,32,30.58,30.13,22,3,22,0.00
2013-1-19,46,35,19,32,22,7,75,61,43,30.50,29.96,26,6,26,0.01
2013-1-20,51,40,27,32,25,9,76,57,32,30.01,29.62,31,7,34,0.00
2013-1-21,40,24,19,37,13,6,91,64,44,30.19,29.86,16,3,19,0.00
2013-1-22,53,18,10,50,7,-3,92,63,36,30.20,29.85,22,4,23,0.00
2013-1-23,15,9,4,12,-5,-9,88,54,39,30.29,30.19,22,5,25,0.00
2013-1-24,36,10,0,33,-4,-10,91,56,34,30.40,30.22,21,5,24,0.00
2013-1-25,35,14,6,32,-1,-9,91,52,29,30.46,30.17,15,3,16,0.00
2013-1-26,46,17,7,43,6,-6,91,65,33,30.39,30.13,17,4,24,0.00
2013-1-27,36,20,10,33,5,0,91,54,31,30.60,30.38,19,4,19,0.00
2013-1-28,52,25,14,48,18,3,92,77,40,30.59,30.11,9,1,11,0.00
2013-1-29,49,30,24,46,27,22,92,92,90,30.30,30.11,6,1,7,0.26
2013-1-30,59,48,32,55,45,29,92,90,87,30.26,29.49,30,5,36,0.10
2013-1-31,60,47,29,57,37,15,92,71,42,29.67,29.01,39,9,42,0.54